sensor_id;sensor_type;location;lat;lon;timestamp;pressure;altitude;pressure_sealevel;temperature;humidity
8627;BME280;4351;51.422;6.794;2022-10-30T00:00:48;99227.91;;;17.48;100.00
8627;BME280;4351;51.422;6.794;2022-10-30T00:03:16;99233.31;;;17.56;100.00
8627;BME280;4351;51.422;6.794;2022-10-30T00:05:46;99230.94;;;17.53;100.00
8627;BME280;4351;51.422;6.794;2022-10-30T00:08:17;99228.59;;;17.50;100.00
8627;BME280;4351;51.422;6.794;2022-10-30T00:10:48;99214.63;;;17.45;100.00
8627;BME280;4351;51.422;6.794;2022-10-30T00:13:18;99197.63;;;17.34;100.00
8627;BME280;4351;51.422;6.794;2022-10-30T00:15:48;99204.75;;;17.35;100.00
8627;BME280;4351;51.422;6.794;2022-10-30T00:18:16;99198.81;;;17.32;100.00
8627;BME280;4351;51.422;6.794;2022-10-30T00:20:45;99177.25;;;17.22;100.00
8627;BME280;4351;51.422;6.794;2022-10-30T00:23:16;99165.34;;;17.15;100.00
8627;BME280;4351;51.422;6.794;2022-10-30T00:25:45;99156.13;;;17.16;100.00
8627;BME280;4351;51.422;6.794;2022-10-30T00:28:13;99147.28;;;17.14;100.00
8627;BME280;4351;51.422;6.794;2022-10-30T00:30:42;99124.81;;;17.03;100.00
8627;BME280;4351;51.422;6.794;2022-10-30T00:33:10;99115.63;;;17.04;100.00
8627;BME280;4351;51.422;6.794;2022-10-30T00:35:46;99102.53;;;16.99;100.00
8627;BME280;4351;51.422;6.794;2022-10-30T00:38:15;99098.78;;;17.00;100.00
8627;BME280;4351;51.422;6.794;2022-10-30T00:40:44;99079.03;;;16.98;100.00
8627;BME280;4351;51.422;6.794;2022-10-30T00:43:30;99061.53;;;16.93;100.00
8627;BME280;4351;51.422;6.794;2022-10-30T00:46:01;99048.28;;;16.89;100.00
8627;BME280;4351;51.422;6.794;2022-10-30T00:48:29;99050.84;;;16.91;100.00
8627;BME280;4351;51.422;6.794;2022-10-30T00:50:58;99016.31;;;16.83;100.00
8627;BME280;4351;51.422;6.794;2022-10-30T00:53:28;99002.72;;;16.75;100.00
8627;BME280;4351;51.422;6.794;2022-10-30T00:56:00;98995.41;;;16.75;100.00
8627;BME280;4351;51.422;6.794;2022-10-30T00:58:31;98988.44;;;16.73;100.00
8627;BME280;4351;51.422;6.794;2022-10-30T01:01:03;98979.78;;;16.69;100.00
8627;BME280;4351;51.422;6.794;2022-10-30T01:03:33;98961.09;;;16.66;100.00
8627;BME280;4351;51.422;6.794;2022-10-30T01:06:06;98937.78;;;16.63;100.00
8627;BME280;4351;51.422;6.794;2022-10-30T01:08:37;98916.53;;;16.59;100.00
8627;BME280;4351;51.422;6.794;2022-10-30T01:11:07;98892.09;;;16.50;100.00
8627;BME280;4351;51.422;6.794;2022-10-30T01:13:37;98876.28;;;16.54;100.00
8627;BME280;4351;51.422;6.794;2022-10-30T01:16:27;98852.47;;;16.48;100.00
8627;BME280;4351;51.422;6.794;2022-10-30T01:19:13;98827.16;;;16.47;100.00
8627;BME280;4351;51.422;6.794;2022-10-30T01:21:50;98815.75;;;16.43;100.00
8627;BME280;4351;51.422;6.794;2022-10-30T01:24:34;98783.50;;;16.40;100.00
8627;BME280;4351;51.422;6.794;2022-10-30T01:27:17;98759.53;;;16.36;100.00
8627;BME280;4351;51.422;6.794;2022-10-30T01:29:55;98717.03;;;16.35;100.00
8627;BME280;4351;51.422;6.794;2022-10-30T01:32:35;98714.03;;;16.29;100.00
8627;BME280;4351;51.422;6.794;2022-10-30T01:35:12;98672.91;;;16.24;100.00
8627;BME280;4351;51.422;6.794;2022-10-30T01:37:46;98629.94;;;16.19;100.00
8627;BME280;4351;51.422;6.794;2022-10-30T01:40:17;98590.25;;;16.02;100.00
8627;BME280;4351;51.422;6.794;2022-10-30T01:42:51;98552.19;;;16.02;100.00
8627;BME280;4351;51.422;6.794;2022-10-30T01:45:28;98526.78;;;15.94;100.00
8627;BME280;4351;51.422;6.794;2022-10-30T01:48:27;98503.78;;;16.05;100.00
8627;BME280;4351;51.422;6.794;2022-10-30T01:51:05;98441.47;;;15.95;100.00
8627;BME280;4351;51.422;6.794;2022-10-30T01:53:45;98443.81;;;15.98;100.00
8627;BME280;4351;51.422;6.794;2022-10-30T01:56:24;98417.66;;;15.97;100.00
8627;BME280;4351;51.422;6.794;2022-10-30T01:59:06;98417.31;;;16.01;100.00
8627;BME280;4351;51.422;6.794;2022-10-30T02:01:36;98438.53;;;16.05;100.00
8627;BME280;4351;51.422;6.794;2022-10-30T02:04:06;98448.88;;;16.02;100.00
8627;BME280;4351;51.422;6.794;2022-10-30T02:06:35;98431.16;;;15.91;100.00
8627;BME280;4351;51.422;6.794;2022-10-30T02:09:04;98468.84;;;15.94;100.00
8627;BME280;4351;51.422;6.794;2022-10-30T02:11:33;98478.50;;;15.96;100.00
8627;BME280;4351;51.422;6.794;2022-10-30T02:14:06;98418.66;;;15.66;100.00
8627;BME280;4351;51.422;6.794;2022-10-30T02:16:38;98403.66;;;15.70;100.00
8627;BME280;4351;51.422;6.794;2022-10-30T02:19:08;98416.78;;;15.82;100.00
8627;BME280;4351;51.422;6.794;2022-10-30T02:21:38;98402.38;;;15.81;100.00
8627;BME280;4351;51.422;6.794;2022-10-30T02:24:06;98403.03;;;15.83;100.00
8627;BME280;4351;51.422;6.794;2022-10-30T02:26:35;98400.78;;;15.87;100.00
8627;BME280;4351;51.422;6.794;2022-10-30T02:29:03;98397.75;;;15.82;100.00
8627;BME280;4351;51.422;6.794;2022-10-30T02:31:33;98390.75;;;15.72;100.00
8627;BME280;4351;51.422;6.794;2022-10-30T02:34:01;98370.75;;;15.65;100.00
8627;BME280;4351;51.422;6.794;2022-10-30T02:36:28;98375.53;;;15.63;100.00
8627;BME280;4351;51.422;6.794;2022-10-30T02:38:58;98366.81;;;15.68;100.00
8627;BME280;4351;51.422;6.794;2022-10-30T02:41:26;98351.06;;;15.63;100.00
8627;BME280;4351;51.422;6.794;2022-10-30T02:43:56;98344.97;;;15.61;100.00
8627;BME280;4351;51.422;6.794;2022-10-30T02:46:24;98327.72;;;15.54;100.00
8627;BME280;4351;51.422;6.794;2022-10-30T02:48:52;98328.97;;;15.51;100.00
8627;BME280;4351;51.422;6.794;2022-10-30T02:51:20;98325.09;;;15.45;100.00
8627;BME280;4351;51.422;6.794;2022-10-30T02:53:48;98344.75;;;15.47;100.00
8627;BME280;4351;51.422;6.794;2022-10-30T02:56:18;98361.06;;;15.47;100.00
8627;BME280;4351;51.422;6.794;2022-10-30T02:58:46;98367.53;;;15.46;100.00
8627;BME280;4351;51.422;6.794;2022-10-30T03:01:16;98397.31;;;15.39;100.00
8627;BME280;4351;51.422;6.794;2022-10-30T03:03:45;98409.69;;;15.42;100.00
8627;BME280;4351;51.422;6.794;2022-10-30T03:06:15;98406.84;;;15.35;100.00
8627;BME280;4351;51.422;6.794;2022-10-30T03:08:43;98412.28;;;15.35;100.00
8627;BME280;4351;51.422;6.794;2022-10-30T03:11:13;98415.34;;;15.32;100.00
8627;BME280;4351;51.422;6.794;2022-10-30T03:13:43;98405.88;;;15.28;100.00
8627;BME280;4351;51.422;6.794;2022-10-30T03:16:14;98428.44;;;15.28;100.00
8627;BME280;4351;51.422;6.794;2022-10-30T03:18:43;98430.97;;;15.30;100.00
8627;BME280;4351;51.422;6.794;2022-10-30T03:21:14;98419.78;;;15.25;100.00
8627;BME280;4351;51.422;6.794;2022-10-30T03:23:43;98412.50;;;15.25;100.00
8627;BME280;4351;51.422;6.794;2022-10-30T03:26:12;98405.44;;;15.16;100.00
8627;BME280;4351;51.422;6.794;2022-10-30T03:29:10;98406.13;;;15.18;100.00
8627;BME280;4351;51.422;6.794;2022-10-30T03:31:38;98406.47;;;15.15;100.00
8627;BME280;4351;51.422;6.794;2022-10-30T03:34:17;98395.13;;;15.11;100.00
8627;BME280;4351;51.422;6.794;2022-10-30T03:36:45;98363.09;;;15.07;100.00
8627;BME280;4351;51.422;6.794;2022-10-30T03:39:13;98361.72;;;15.11;100.00
8627;BME280;4351;51.422;6.794;2022-10-30T03:41:43;98324.78;;;15.01;100.00
8627;BME280;4351;51.422;6.794;2022-10-30T03:44:12;98304.34;;;14.90;100.00
8627;BME280;4351;51.422;6.794;2022-10-30T03:46:40;98292.94;;;14.95;100.00
8627;BME280;4351;51.422;6.794;2022-10-30T03:49:30;98240.09;;;14.82;100.00
8627;BME280;4351;51.422;6.794;2022-10-30T03:52:01;98233.69;;;14.75;100.00
8627;BME280;4351;51.422;6.794;2022-10-30T03:54:29;98209.81;;;14.70;100.00
8627;BME280;4351;51.422;6.794;2022-10-30T03:56:57;98195.97;;;14.65;100.00
8627;BME280;4351;51.422;6.794;2022-10-30T03:59:31;98174.50;;;14.55;100.00
8627;BME280;4351;51.422;6.794;2022-10-30T04:02:25;98189.66;;;14.50;100.00
8627;BME280;4351;51.422;6.794;2022-10-30T04:04:53;98192.84;;;14.53;100.00
8627;BME280;4351;51.422;6.794;2022-10-30T04:07:21;98171.69;;;14.48;100.00
8627;BME280;4351;51.422;6.794;2022-10-30T04:09:49;98173.72;;;14.46;100.00
8627;BME280;4351;51.422;6.794;2022-10-30T04:12:17;98150.91;;;14.41;100.00
8627;BME280;4351;51.422;6.794;2022-10-30T04:14:47;98168.50;;;14.45;100.00
8627;BME280;4351;51.422;6.794;2022-10-30T04:17:16;98202.97;;;14.36;100.00
8627;BME280;4351;51.422;6.794;2022-10-30T04:19:44;98198.06;;;14.31;100.00
8627;BME280;4351;51.422;6.794;2022-10-30T04:22:12;98220.63;;;14.32;100.00
8627;BME280;4351;51.422;6.794;2022-10-30T04:24:40;98216.75;;;14.26;100.00
8627;BME280;4351;51.422;6.794;2022-10-30T04:27:08;98222.88;;;14.20;100.00
8627;BME280;4351;51.422;6.794;2022-10-30T04:29:36;98218.63;;;14.25;100.00
8627;BME280;4351;51.422;6.794;2022-10-30T04:32:06;98188.97;;;14.24;100.00
8627;BME280;4351;51.422;6.794;2022-10-30T04:34:34;98179.22;;;14.14;100.00
8627;BME280;4351;51.422;6.794;2022-10-30T04:37:05;98163.84;;;14.07;100.00
8627;BME280;4351;51.422;6.794;2022-10-30T04:39:33;98144.19;;;14.05;100.00
8627;BME280;4351;51.422;6.794;2022-10-30T04:42:11;98135.78;;;13.99;100.00
8627;BME280;4351;51.422;6.794;2022-10-30T04:44:41;98148.47;;;13.99;100.00
8627;BME280;4351;51.422;6.794;2022-10-30T04:47:10;98153.44;;;13.95;100.00
8627;BME280;4351;51.422;6.794;2022-10-30T04:49:38;98141.13;;;13.84;100.00
8627;BME280;4351;51.422;6.794;2022-10-30T04:52:07;98180.88;;;13.92;100.00
8627;BME280;4351;51.422;6.794;2022-10-30T04:54:35;98201.16;;;13.96;100.00
8627;BME280;4351;51.422;6.794;2022-10-30T04:57:03;98228.41;;;14.03;100.00
8627;BME280;4351;51.422;6.794;2022-10-30T04:59:31;98245.66;;;14.02;100.00
8627;BME280;4351;51.422;6.794;2022-10-30T05:01:59;98255.16;;;14.06;100.00
8627;BME280;4351;51.422;6.794;2022-10-30T05:04:29;98256.66;;;14.09;100.00
8627;BME280;4351;51.422;6.794;2022-10-30T05:06:58;98281.91;;;14.09;100.00
8627;BME280;4351;51.422;6.794;2022-10-30T05:09:27;98298.50;;;14.14;100.00
8627;BME280;4351;51.422;6.794;2022-10-30T05:11:54;98272.38;;;14.13;100.00
8627;BME280;4351;51.422;6.794;2022-10-30T05:14:28;98242.56;;;14.13;100.00
8627;BME280;4351;51.422;6.794;2022-10-30T05:16:56;98240.72;;;14.14;100.00
8627;BME280;4351;51.422;6.794;2022-10-30T05:19:25;98246.81;;;14.16;100.00
8627;BME280;4351;51.422;6.794;2022-10-30T05:21:57;98241.91;;;14.11;100.00
8627;BME280;4351;51.422;6.794;2022-10-30T05:24:25;98267.16;;;14.12;100.00
8627;BME280;4351;51.422;6.794;2022-10-30T05:26:53;98305.59;;;14.16;100.00
8627;BME280;4351;51.422;6.794;2022-10-30T05:29:22;98332.03;;;14.13;100.00
8627;BME280;4351;51.422;6.794;2022-10-30T05:31:50;98342.56;;;14.08;100.00
8627;BME280;4351;51.422;6.794;2022-10-30T05:34:33;98334.44;;;14.00;100.00
8627;BME280;4351;51.422;6.794;2022-10-30T05:37:03;98332.59;;;14.00;100.00
8627;BME280;4351;51.422;6.794;2022-10-30T05:39:31;98288.91;;;13.95;100.00
8627;BME280;4351;51.422;6.794;2022-10-30T05:42:00;98271.00;;;13.86;100.00
8627;BME280;4351;51.422;6.794;2022-10-30T05:44:38;98303.69;;;13.84;100.00
8627;BME280;4351;51.422;6.794;2022-10-30T05:47:26;98452.34;;;13.87;100.00
8627;BME280;4351;51.422;6.794;2022-10-30T05:49:55;98484.88;;;13.87;100.00
8627;BME280;4351;51.422;6.794;2022-10-30T05:52:26;98514.69;;;13.87;100.00
8627;BME280;4351;51.422;6.794;2022-10-30T05:54:57;98522.81;;;13.79;100.00
8627;BME280;4351;51.422;6.794;2022-10-30T05:57:54;98521.09;;;13.78;100.00
8627;BME280;4351;51.422;6.794;2022-10-30T06:00:23;98487.53;;;13.54;100.00
8627;BME280;4351;51.422;6.794;2022-10-30T06:02:52;98516.84;;;13.67;100.00
8627;BME280;4351;51.422;6.794;2022-10-30T06:05:30;98540.59;;;13.73;100.00
8627;BME280;4351;51.422;6.794;2022-10-30T06:08:01;98552.78;;;13.77;100.00
8627;BME280;4351;51.422;6.794;2022-10-30T06:10:29;98559.88;;;13.70;100.00
8627;BME280;4351;51.422;6.794;2022-10-30T06:13:09;98556.66;;;13.66;100.00
8627;BME280;4351;51.422;6.794;2022-10-30T06:15:57;98566.47;;;13.59;100.00
8627;BME280;4351;51.422;6.794;2022-10-30T06:18:35;98583.91;;;13.65;100.00
8627;BME280;4351;51.422;6.794;2022-10-30T06:21:08;98596.44;;;13.66;100.00
8627;BME280;4351;51.422;6.794;2022-10-30T06:23:50;98578.16;;;13.60;100.00
8627;BME280;4351;51.422;6.794;2022-10-30T06:26:35;98563.25;;;13.55;100.00
8627;BME280;4351;51.422;6.794;2022-10-30T06:29:08;98550.84;;;13.53;100.00
8627;BME280;4351;51.422;6.794;2022-10-30T06:31:36;98529.84;;;13.47;100.00
8627;BME280;4351;51.422;6.794;2022-10-30T06:34:04;98521.78;;;13.55;100.00
8627;BME280;4351;51.422;6.794;2022-10-30T06:36:35;98486.16;;;13.50;100.00
8627;BME280;4351;51.422;6.794;2022-10-30T06:39:05;98479.91;;;13.49;100.00
8627;BME280;4351;51.422;6.794;2022-10-30T06:41:40;98482.09;;;13.45;100.00
8627;BME280;4351;51.422;6.794;2022-10-30T06:44:20;98490.75;;;13.49;100.00
8627;BME280;4351;51.422;6.794;2022-10-30T06:46:51;98512.28;;;13.59;100.00
8627;BME280;4351;51.422;6.794;2022-10-30T06:49:19;98497.69;;;13.52;100.00
8627;BME280;4351;51.422;6.794;2022-10-30T06:51:49;98506.97;;;13.49;100.00
8627;BME280;4351;51.422;6.794;2022-10-30T06:54:19;98517.50;;;13.52;100.00
8627;BME280;4351;51.422;6.794;2022-10-30T06:57:07;98503.78;;;13.54;100.00
8627;BME280;4351;51.422;6.794;2022-10-30T06:59:49;98520.41;;;13.59;100.00
8627;BME280;4351;51.422;6.794;2022-10-30T07:02:37;98516.34;;;13.55;100.00
8627;BME280;4351;51.422;6.794;2022-10-30T07:05:08;98526.50;;;13.61;100.00
8627;BME280;4351;51.422;6.794;2022-10-30T07:07:37;98541.25;;;13.67;100.00
8627;BME280;4351;51.422;6.794;2022-10-30T07:10:08;98544.81;;;13.67;100.00
8627;BME280;4351;51.422;6.794;2022-10-30T07:13:05;98540.25;;;13.76;100.00
8627;BME280;4351;51.422;6.794;2022-10-30T07:16:03;98525.16;;;13.74;100.00
8627;BME280;4351;51.422;6.794;2022-10-30T07:18:39;98521.44;;;13.75;100.00
8627;BME280;4351;51.422;6.794;2022-10-30T07:21:07;98527.88;;;13.82;100.00
8627;BME280;4351;51.422;6.794;2022-10-30T07:23:36;98533.81;;;13.86;100.00
8627;BME280;4351;51.422;6.794;2022-10-30T07:26:17;98521.28;;;13.85;100.00
8627;BME280;4351;51.422;6.794;2022-10-30T07:28:45;98540.41;;;13.91;100.00
8627;BME280;4351;51.422;6.794;2022-10-30T07:31:19;98547.88;;;13.98;100.00
8627;BME280;4351;51.422;6.794;2022-10-30T07:34:28;98542.78;;;14.03;100.00
8627;BME280;4351;51.422;6.794;2022-10-30T07:37:14;98544.81;;;14.09;100.00
8627;BME280;4351;51.422;6.794;2022-10-30T07:39:58;98549.56;;;14.16;100.00
8627;BME280;4351;51.422;6.794;2022-10-30T07:42:46;98535.31;;;14.22;100.00
8627;BME280;4351;51.422;6.794;2022-10-30T07:45:35;98528.53;;;14.26;100.00
8627;BME280;4351;51.422;6.794;2022-10-30T07:48:23;98524.13;;;14.33;100.00
8627;BME280;4351;51.422;6.794;2022-10-30T07:51:09;98530.19;;;14.44;100.00
8627;BME280;4351;51.422;6.794;2022-10-30T07:53:37;98523.09;;;14.43;100.00
8627;BME280;4351;51.422;6.794;2022-10-30T07:56:06;98532.91;;;14.52;100.00
8627;BME280;4351;51.422;6.794;2022-10-30T07:58:56;98528.31;;;14.61;100.00
8627;BME280;4351;51.422;6.794;2022-10-30T08:01:54;98510.69;;;14.65;100.00
8627;BME280;4351;51.422;6.794;2022-10-30T08:04:33;98529.59;;;14.82;100.00
8627;BME280;4351;51.422;6.794;2022-10-30T08:07:30;98535.66;;;15.01;100.00
8627;BME280;4351;51.422;6.794;2022-10-30T08:09:58;98548.13;;;15.19;100.00
8627;BME280;4351;51.422;6.794;2022-10-30T08:12:26;98549.47;;;15.31;100.00
8627;BME280;4351;51.422;6.794;2022-10-30T08:14:56;98542.41;;;15.45;100.00
8627;BME280;4351;51.422;6.794;2022-10-30T08:17:24;98539.28;;;15.57;100.00
8627;BME280;4351;51.422;6.794;2022-10-30T08:20:06;98550.28;;;15.87;100.00
8627;BME280;4351;51.422;6.794;2022-10-30T08:22:34;98541.84;;;16.05;100.00
8627;BME280;4351;51.422;6.794;2022-10-30T08:25:03;98535.28;;;16.15;100.00
8627;BME280;4351;51.422;6.794;2022-10-30T08:27:31;98521.44;;;16.25;100.00
8627;BME280;4351;51.422;6.794;2022-10-30T08:30:01;98517.97;;;16.31;100.00
8627;BME280;4351;51.422;6.794;2022-10-30T08:32:30;98520.72;;;16.46;100.00
8627;BME280;4351;51.422;6.794;2022-10-30T08:35:31;98529.38;;;16.65;100.00
8627;BME280;4351;51.422;6.794;2022-10-30T08:38:00;98550.31;;;16.80;100.00
8627;BME280;4351;51.422;6.794;2022-10-30T08:40:30;98572.63;;;16.90;100.00
8627;BME280;4351;51.422;6.794;2022-10-30T08:43:04;98583.53;;;16.90;100.00
8627;BME280;4351;51.422;6.794;2022-10-30T08:45:34;98631.13;;;17.09;100.00
8627;BME280;4351;51.422;6.794;2022-10-30T08:48:09;98596.69;;;17.01;100.00
8627;BME280;4351;51.422;6.794;2022-10-30T08:50:40;98640.28;;;17.17;100.00
8627;BME280;4351;51.422;6.794;2022-10-30T08:53:10;98653.25;;;17.15;100.00
8627;BME280;4351;51.422;6.794;2022-10-30T08:55:39;98699.38;;;17.31;100.00
8627;BME280;4351;51.422;6.794;2022-10-30T08:58:34;98752.47;;;17.66;100.00
8627;BME280;4351;51.422;6.794;2022-10-30T09:01:03;98726.84;;;17.97;100.00
8627;BME280;4351;51.422;6.794;2022-10-30T09:03:54;98786.47;;;18.31;100.00
8627;BME280;4351;51.422;6.794;2022-10-30T09:06:41;98836.69;;;18.52;100.00
8627;BME280;4351;51.422;6.794;2022-10-30T09:09:26;98888.97;;;18.70;100.00
8627;BME280;4351;51.422;6.794;2022-10-30T09:11:58;98953.59;;;19.00;100.00
8627;BME280;4351;51.422;6.794;2022-10-30T09:14:26;98961.34;;;18.81;100.00
8627;BME280;4351;51.422;6.794;2022-10-30T09:16:57;99048.84;;;19.18;100.00
8627;BME280;4351;51.422;6.794;2022-10-30T09:19:26;99126.06;;;19.42;100.00
8627;BME280;4351;51.422;6.794;2022-10-30T09:21:57;99158.03;;;19.42;100.00
8627;BME280;4351;51.422;6.794;2022-10-30T09:24:25;99151.72;;;19.26;100.00
8627;BME280;4351;51.422;6.794;2022-10-30T09:26:54;99219.56;;;19.53;100.00
8627;BME280;4351;51.422;6.794;2022-10-30T09:29:24;99222.72;;;19.35;100.00
8627;BME280;4351;51.422;6.794;2022-10-30T09:32:06;99228.72;;;19.30;100.00
8627;BME280;4351;51.422;6.794;2022-10-30T09:34:54;99262.41;;;19.46;100.00
8627;BME280;4351;51.422;6.794;2022-10-30T09:37:25;99276.22;;;19.44;100.00
8627;BME280;4351;51.422;6.794;2022-10-30T09:39:58;99254.19;;;19.30;100.00
8627;BME280;4351;51.422;6.794;2022-10-30T09:42:39;99302.00;;;19.50;100.00
8627;BME280;4351;51.422;6.794;2022-10-30T09:45:25;99269.19;;;19.35;100.00
8627;BME280;4351;51.422;6.794;2022-10-30T09:48:18;99340.84;;;19.60;100.00
8627;BME280;4351;51.422;6.794;2022-10-30T09:51:04;99332.53;;;19.53;100.00
8627;BME280;4351;51.422;6.794;2022-10-30T09:53:40;99381.03;;;19.75;100.00
8627;BME280;4351;51.422;6.794;2022-10-30T09:56:23;99387.69;;;19.57;100.00
8627;BME280;4351;51.422;6.794;2022-10-30T09:59:02;99403.38;;;19.63;100.00
8627;BME280;4351;51.422;6.794;2022-10-30T10:01:40;99426.69;;;19.74;100.00
8627;BME280;4351;51.422;6.794;2022-10-30T10:04:20;99417.09;;;19.55;100.00
8627;BME280;4351;51.422;6.794;2022-10-30T10:07:24;99491.19;;;19.45;100.00
8627;BME280;4351;51.422;6.794;2022-10-30T10:10:17;99477.41;;;19.38;100.00
8627;BME280;4351;51.422;6.794;2022-10-30T10:12:53;99489.97;;;19.48;100.00
8627;BME280;4351;51.422;6.794;2022-10-30T10:15:59;99520.28;;;19.61;100.00
8627;BME280;4351;51.422;6.794;2022-10-30T10:19:37;99535.31;;;19.66;100.00
8627;BME280;4351;51.422;6.794;2022-10-30T10:22:13;99585.75;;;19.86;100.00
8627;BME280;4351;51.422;6.794;2022-10-30T10:24:46;99588.19;;;19.81;100.00
8627;BME280;4351;51.422;6.794;2022-10-30T10:27:24;99566.00;;;19.76;100.00
8627;BME280;4351;51.422;6.794;2022-10-30T10:30:01;99549.41;;;19.78;100.00
8627;BME280;4351;51.422;6.794;2022-10-30T10:35:49;99601.81;;;19.90;100.00
8627;BME280;4351;51.422;6.794;2022-10-30T10:38:28;99570.31;;;19.70;100.00
8627;BME280;4351;51.422;6.794;2022-10-30T10:41:08;99542.47;;;19.67;100.00
8627;BME280;4351;51.422;6.794;2022-10-30T10:43:56;99592.75;;;19.89;100.00
8627;BME280;4351;51.422;6.794;2022-10-30T10:46:43;99612.19;;;19.94;100.00
8627;BME280;4351;51.422;6.794;2022-10-30T10:49:25;99599.63;;;19.85;100.00
8627;BME280;4351;51.422;6.794;2022-10-30T10:52:08;99622.91;;;20.04;100.00
8627;BME280;4351;51.422;6.794;2022-10-30T10:54:41;99628.03;;;20.07;100.00
8627;BME280;4351;51.422;6.794;2022-10-30T10:57:15;99641.28;;;20.19;100.00
8627;BME280;4351;51.422;6.794;2022-10-30T10:59:47;99668.13;;;20.24;100.00
8627;BME280;4351;51.422;6.794;2022-10-30T11:02:29;99713.03;;;20.38;100.00
8627;BME280;4351;51.422;6.794;2022-10-30T11:05:05;99761.97;;;20.56;100.00
8627;BME280;4351;51.422;6.794;2022-10-30T11:07:40;99741.34;;;20.45;100.00
8627;BME280;4351;51.422;6.794;2022-10-30T11:10:13;99751.75;;;20.50;100.00
8627;BME280;4351;51.422;6.794;2022-10-30T11:12:41;99751.56;;;20.51;100.00
8627;BME280;4351;51.422;6.794;2022-10-30T11:15:22;99748.47;;;20.54;100.00
8627;BME280;4351;51.422;6.794;2022-10-30T11:17:58;99754.28;;;20.60;100.00
8627;BME280;4351;51.422;6.794;2022-10-30T11:20:32;99768.91;;;20.67;100.00
8627;BME280;4351;51.422;6.794;2022-10-30T11:23:31;99789.06;;;20.74;100.00
8627;BME280;4351;51.422;6.794;2022-10-30T11:25:59;99805.81;;;20.79;100.00
8627;BME280;4351;51.422;6.794;2022-10-30T11:28:37;99793.34;;;20.77;100.00
8627;BME280;4351;51.422;6.794;2022-10-30T11:31:21;99839.97;;;20.92;100.00
8627;BME280;4351;51.422;6.794;2022-10-30T11:33:50;99823.28;;;20.78;100.00
8627;BME280;4351;51.422;6.794;2022-10-30T11:36:21;99815.06;;;20.78;100.00
8627;BME280;4351;51.422;6.794;2022-10-30T11:38:51;99830.22;;;20.89;100.00
8627;BME280;4351;51.422;6.794;2022-10-30T11:41:21;99862.66;;;21.09;100.00
8627;BME280;4351;51.422;6.794;2022-10-30T11:43:49;99890.19;;;21.16;100.00
8627;BME280;4351;51.422;6.794;2022-10-30T11:46:21;99863.22;;;20.96;100.00
8627;BME280;4351;51.422;6.794;2022-10-30T11:48:49;99859.78;;;21.02;100.00
8627;BME280;4351;51.422;6.794;2022-10-30T11:51:35;99847.41;;;21.07;100.00
8627;BME280;4351;51.422;6.794;2022-10-30T11:54:06;99867.94;;;21.11;100.00
8627;BME280;4351;51.422;6.794;2022-10-30T11:56:34;99844.41;;;20.93;100.00
8627;BME280;4351;51.422;6.794;2022-10-30T11:59:03;99796.34;;;20.82;100.00
8627;BME280;4351;51.422;6.794;2022-10-30T12:01:34;99802.47;;;20.93;100.00
8627;BME280;4351;51.422;6.794;2022-10-30T12:04:13;99802.94;;;20.96;100.00
8627;BME280;4351;51.422;6.794;2022-10-30T12:06:42;99830.28;;;21.05;100.00
8627;BME280;4351;51.422;6.794;2022-10-30T12:09:13;99779.22;;;20.88;100.00
8627;BME280;4351;51.422;6.794;2022-10-30T12:11:42;99758.00;;;20.82;100.00
8627;BME280;4351;51.422;6.794;2022-10-30T12:14:17;99768.66;;;21.00;100.00
8627;BME280;4351;51.422;6.794;2022-10-30T12:16:48;99767.13;;;20.98;100.00
8627;BME280;4351;51.422;6.794;2022-10-30T12:19:19;99805.75;;;21.11;100.00
8627;BME280;4351;51.422;6.794;2022-10-30T12:21:49;99824.75;;;21.13;100.00
8627;BME280;4351;51.422;6.794;2022-10-30T12:24:27;99842.59;;;21.09;100.00
8627;BME280;4351;51.422;6.794;2022-10-30T12:27:00;99897.69;;;21.38;100.00
8627;BME280;4351;51.422;6.794;2022-10-30T12:29:37;99928.19;;;21.43;100.00
8627;BME280;4351;51.422;6.794;2022-10-30T12:32:31;99907.97;;;21.20;100.00
8627;BME280;4351;51.422;6.794;2022-10-30T12:37:53;99957.81;;;21.47;100.00
8627;BME280;4351;51.422;6.794;2022-10-30T12:40:28;99968.66;;;21.41;100.00
8627;BME280;4351;51.422;6.794;2022-10-30T12:43:02;99955.84;;;21.33;100.00
8627;BME280;4351;51.422;6.794;2022-10-30T12:45:38;100005.22;;;21.33;100.00
8627;BME280;4351;51.422;6.794;2022-10-30T12:48:14;100008.63;;;21.35;100.00
8627;BME280;4351;51.422;6.794;2022-10-30T12:50:48;99946.03;;;21.15;100.00
8627;BME280;4351;51.422;6.794;2022-10-30T12:53:26;99946.66;;;21.25;100.00
8627;BME280;4351;51.422;6.794;2022-10-30T12:55:59;99933.78;;;21.26;100.00
8627;BME280;4351;51.422;6.794;2022-10-30T12:58:35;99923.94;;;21.17;100.00
8627;BME280;4351;51.422;6.794;2022-10-30T13:01:12;99885.66;;;21.00;100.00
8627;BME280;4351;51.422;6.794;2022-10-30T13:03:50;99880.50;;;21.05;100.00
8627;BME280;4351;51.422;6.794;2022-10-30T13:06:23;99869.53;;;21.05;100.00
8627;BME280;4351;51.422;6.794;2022-10-30T13:09:02;99864.25;;;21.04;100.00
8627;BME280;4351;51.422;6.794;2022-10-30T13:11:39;99868.72;;;20.96;100.00
8627;BME280;4351;51.422;6.794;2022-10-30T13:14:15;99870.78;;;20.94;100.00
8627;BME280;4351;51.422;6.794;2022-10-30T13:16:43;99843.44;;;20.86;100.00
8627;BME280;4351;51.422;6.794;2022-10-30T13:19:12;99827.59;;;20.96;100.00
8627;BME280;4351;51.422;6.794;2022-10-30T13:21:46;99803.09;;;20.79;100.00
8627;BME280;4351;51.422;6.794;2022-10-30T13:24:20;99793.81;;;20.81;100.00
8627;BME280;4351;51.422;6.794;2022-10-30T13:26:54;99828.47;;;20.97;100.00
8627;BME280;4351;51.422;6.794;2022-10-30T13:29:28;99774.63;;;20.81;100.00
8627;BME280;4351;51.422;6.794;2022-10-30T13:32:18;99757.53;;;20.78;100.00
8627;BME280;4351;51.422;6.794;2022-10-30T13:34:54;99701.19;;;20.61;100.00
8627;BME280;4351;51.422;6.794;2022-10-30T13:37:29;99661.03;;;20.53;100.00
8627;BME280;4351;51.422;6.794;2022-10-30T13:40:12;99670.03;;;20.62;100.00
8627;BME280;4351;51.422;6.794;2022-10-30T13:42:49;99690.81;;;20.71;100.00
8627;BME280;4351;51.422;6.794;2022-10-30T13:45:42;99691.38;;;20.66;100.00
8627;BME280;4351;51.422;6.794;2022-10-30T13:48:18;99683.63;;;20.70;100.00
8627;BME280;4351;51.422;6.794;2022-10-30T13:51:06;99677.50;;;20.68;100.00
8627;BME280;4351;51.422;6.794;2022-10-30T13:53:39;99686.56;;;20.68;100.00
8627;BME280;4351;51.422;6.794;2022-10-30T13:56:13;99639.91;;;20.62;100.00